Time;durP1;ratioP1;P1;durP2;ratioP2;P2;SDS_P1;SDS_P2;PMS_P1;PMS_P2;Temp;Humidity;BMP_temperature;BMP_pressure;BME280_temperature;BME280_humidity;BME280_pressure;Samples;Min_cycle;Max_cycle;Signal;HPM_P1;HPM_P2
2021/07/13 00:00:30;;;;;;;6.92;6.25;;;;;;;14.16;100.00;93235.38;1778163;79;21374;-75
2021/07/13 00:02:58;;;;;;;9.03;7.30;;;;;;;14.11;100.00;93221.44;1783584;78;21103;-76
2021/07/13 00:05:25;;;;;;;6.97;6.37;;;;;;;14.05;100.00;93216.45;1767338;80;21105;-76
2021/07/13 00:07:52;;;;;;;7.35;6.62;;;;;;;14.06;100.00;93220.71;1771944;80;21082;-76
2021/07/13 00:10:22;;;;;;;8.95;5.95;;;;;;;14.07;100.00;93220.91;1735713;80;21439;-78
2021/07/13 00:12:49;;;;;;;8.48;7.45;;;;;;;14.06;100.00;93217.98;1740118;81;21038;-78
2021/07/13 00:15:29;;;;;;;7.53;6.80;;;;;;;13.98;100.00;93215.22;1761103;80;21120;-75
2021/07/13 00:17:57;;;;;;;9.15;7.12;;;;;;;13.98;100.00;93226.75;1789229;78;21472;-79
2021/07/13 00:20:26;;;;;;;7.72;7.00;;;;;;;13.91;100.00;93227.66;1802344;78;21054;-76
2021/07/13 00:22:54;;;;;;;11.55;8.40;;;;;;;13.95;100.00;93226.98;1805510;78;21093;-79
2021/07/13 00:25:21;;;;;;;9.90;7.15;;;;;;;14.02;100.00;93226.09;1803904;78;21098;-76
2021/07/13 00:27:50;;;;;;;8.33;6.92;;;;;;;14.09;100.00;93234.14;1791656;78;21643;-76
2021/07/13 00:30:18;;;;;;;7.97;6.67;;;;;;;14.17;100.00;93238.88;1797106;78;21093;-77
2021/07/13 00:32:45;;;;;;;7.75;6.50;;;;;;;14.16;100.00;93234.00;1800782;78;21002;-78
2021/07/13 00:35:13;;;;;;;8.35;7.53;;;;;;;14.16;100.00;93228.53;1782554;78;21057;-76
2021/07/13 00:37:46;;;;;;;9.15;7.58;;;;;;;14.17;100.00;93230.07;1805183;78;21098;-76
2021/07/13 00:40:11;;;;;;;9.70;7.28;;;;;;;14.12;100.00;93230.58;1783713;78;21592;-75
2021/07/13 00:42:38;;;;;;;8.60;6.22;;;;;;;14.05;100.00;93233.45;1709760;82;21152;-75
2021/07/13 00:45:06;;;;;;;7.08;6.37;;;;;;;13.89;99.95;93223.22;1788542;78;20963;-76
2021/07/13 00:47:33;;;;;;;7.53;6.42;;;;;;;13.78;100.00;93228.89;1795393;79;21033;-74
2021/07/13 00:50:00;;;;;;;6.78;6.20;;;;;;;13.68;100.00;93233.95;1759828;81;21118;-76
2021/07/13 00:52:28;;;;;;;11.35;7.80;;;;;;;13.64;100.00;93237.95;1766734;81;21070;-76
2021/07/13 00:54:55;;;;;;;8.83;6.53;;;;;;;13.62;100.00;93227.45;1809019;79;21395;-75
2021/07/13 00:57:23;;;;;;;11.05;6.87;;;;;;;13.61;100.00;93220.42;1793238;79;21597;-75
2021/07/13 00:59:49;;;;;;;9.38;6.40;;;;;;;13.61;100.00;93223.16;1747786;79;21077;-76
2021/07/13 01:02:17;;;;;;;6.33;5.72;;;;;;;13.65;100.00;93213.53;1793067;79;21091;-75
2021/07/13 01:04:53;;;;;;;6.45;5.78;;;;;;;13.68;100.00;93212.09;1794700;79;20951;-76
2021/07/13 01:07:51;;;;;;;6.87;6.22;;;;;;;13.55;99.15;93220.75;1778093;79;21064;-74
2021/07/13 01:11:01;;;;;;;7.47;6.70;;;;;;;13.35;100.00;93212.51;1758342;80;21278;-75
2021/07/13 01:13:33;;;;;;;7.15;6.45;;;;;;;13.27;100.00;93216.55;1716526;82;21069;-76
2021/07/13 01:16:20;;;;;;;7.35;6.65;;;;;;;13.22;100.00;93214.28;1737107;82;21575;-77
2021/07/13 01:19:00;;;;;;;7.17;6.47;;;;;;;13.16;100.00;93212.61;1757626;80;20999;-77
2021/07/13 01:21:49;;;;;;;7.87;7.08;;;;;;;13.14;100.00;93209.54;1742935;82;21466;-75
2021/07/13 01:25:11;;;;;;;7.78;6.97;;;;;;;13.23;100.00;93214.45;1750009;80;21714;-77
2021/07/13 01:27:49;;;;;;;9.00;7.35;;;;;;;13.34;100.00;93209.01;1786381;79;21130;-78
2021/07/13 01:30:25;;;;;;;8.88;6.40;;;;;;;13.47;100.00;93202.36;1793023;79;21037;-78
2021/07/13 01:33:11;;;;;;;7.67;6.97;;;;;;;13.57;100.00;93206.06;1785039;80;20937;-76
2021/07/13 01:35:39;;;;;;;7.20;6.50;;;;;;;13.68;100.00;93209.97;1785783;80;21075;-77
2021/07/13 01:38:06;;;;;;;7.22;5.80;;;;;;;13.79;100.00;93208.56;1803681;79;21250;-78
2021/07/13 01:40:32;;;;;;;7.03;5.42;;;;;;;13.82;100.00;93200.90;1794243;78;21113;-77
2021/07/13 01:42:59;;;;;;;5.55;5.05;;;;;;;13.81;100.00;93210.89;1826039;78;21002;-78
2021/07/13 01:45:25;;;;;;;6.22;5.62;;;;;;;13.80;100.00;93201.94;1839077;78;20963;-76
2021/07/13 01:47:53;;;;;;;6.62;5.97;;;;;;;13.79;100.00;93195.50;1831857;78;21090;-77
2021/07/13 01:50:19;;;;;;;6.80;5.78;;;;;;;13.78;100.00;93203.53;1788921;79;21037;-76
2021/07/13 01:52:47;;;;;;;8.63;6.65;;;;;;;13.73;100.00;93208.13;1800022;78;21018;-78
2021/07/13 01:55:14;;;;;;;8.58;6.85;;;;;;;13.72;100.00;93210.06;1808635;77;21065;-80
2021/07/13 01:57:41;;;;;;;7.10;6.40;;;;;;;13.71;100.00;93207.16;1808554;78;21025;-77
2021/07/13 02:00:09;;;;;;;7.87;6.35;;;;;;;13.71;100.00;93200.34;1800764;78;21408;-77
2021/07/13 02:02:38;;;;;;;8.10;6.65;;;;;;;13.77;100.00;93202.00;1829099;78;21073;-77
2021/07/13 02:05:09;;;;;;;7.35;6.10;;;;;;;13.81;100.00;93202.70;1813827;78;21080;-78
2021/07/13 02:07:41;;;;;;;8.60;5.92;;;;;;;13.84;100.00;93201.27;1829850;78;21139;-76
2021/07/13 02:10:10;;;;;;;6.05;5.37;;;;;;;13.87;100.00;93198.27;1839583;78;20963;-73
2021/07/13 02:12:38;;;;;;;7.25;5.42;;;;;;;13.80;100.00;93203.30;1835555;77;21044;-76
2021/07/13 02:15:05;;;;;;;6.05;5.53;;;;;;;13.65;100.00;93199.27;1810845;78;21320;-77
2021/07/13 02:17:33;;;;;;;6.55;5.92;;;;;;;13.58;100.00;93196.70;1835244;78;20975;-77
2021/07/13 02:20:02;;;;;;;7.53;5.97;;;;;;;13.51;100.00;93194.87;1834557;78;21038;-79
2021/07/13 02:22:28;;;;;;;6.50;5.90;;;;;;;13.48;100.00;93191.60;1834235;78;21548;-75
2021/07/13 02:24:57;;;;;;;8.05;6.15;;;;;;;13.45;100.00;93197.13;1834080;78;21855;-75
2021/07/13 02:27:23;;;;;;;6.72;5.95;;;;;;;13.42;100.00;93202.05;1834498;77;21026;-74
2021/07/13 02:29:55;;;;;;;16.52;7.50;;;;;;;13.40;100.00;93198.98;1835610;78;21517;-77
2021/07/13 02:32:46;;;;;;;6.85;6.22;;;;;;;13.41;100.00;93200.52;1759981;81;21066;-78
2021/07/13 02:35:14;;;;;;;6.65;6.03;;;;;;;13.46;100.00;93195.93;1712300;81;21079;-75
2021/07/13 02:37:41;;;;;;;9.68;6.90;;;;;;;13.51;100.00;93192.73;1731929;82;21558;-77
2021/07/13 02:40:09;;;;;;;7.00;5.70;;;;;;;13.51;100.00;93200.93;1748938;81;21050;-74
2021/07/13 02:42:36;;;;;;;5.83;5.33;;;;;;;13.48;100.00;93200.39;1740103;82;21541;-75
2021/07/13 02:45:05;;;;;;;8.60;6.55;;;;;;;13.39;98.86;93206.41;1734857;80;21083;-76
2021/07/13 02:47:32;;;;;;;7.20;6.17;;;;;;;13.26;99.02;93204.87;1765963;80;21024;-78
2021/07/13 02:49:59;;;;;;;9.03;7.60;;;;;;;13.26;100.00;93204.87;1791985;79;21580;-75
2021/07/13 02:52:31;;;;;;;7.37;6.08;;;;;;;13.28;100.00;93198.41;1796737;79;21034;-76
2021/07/13 02:55:03;;;;;;;8.00;6.15;;;;;;;13.35;100.00;93206.48;1793817;79;20983;-77
2021/07/13 02:57:29;;;;;;;7.40;6.28;;;;;;;13.42;100.00;93202.05;1787233;79;21196;-77
2021/07/13 02:59:56;;;;;;;6.00;5.50;;;;;;;13.46;100.00;93206.86;1800934;79;21039;-75
2021/07/13 03:02:22;;;;;;;5.33;4.83;;;;;;;13.49;100.00;93213.62;1781721;79;21161;-78
2021/07/13 03:04:50;;;;;;;6.10;5.00;;;;;;;13.44;100.00;93212.75;1783279;80;21045;-75
2021/07/13 03:07:19;;;;;;;5.83;5.22;;;;;;;13.36;100.00;93207.24;1777954;80;21659;-76
2021/07/13 03:09:46;;;;;;;5.65;5.12;;;;;;;13.34;100.00;93209.61;1770177;80;21089;-78
2021/07/13 03:12:13;;;;;;;5.80;5.30;;;;;;;13.37;100.00;93211.51;1774403;80;21572;-75
2021/07/13 03:14:44;;;;;;;6.03;5.42;;;;;;;13.38;100.00;93212.27;1796568;79;21283;-77
2021/07/13 03:17:13;;;;;;;5.65;5.15;;;;;;;13.35;100.00;93209.20;1773410;79;21003;-76
2021/07/13 03:19:40;;;;;;;9.40;7.50;;;;;;;13.42;100.00;93209.65;1738641;80;21022;-77
2021/07/13 03:22:09;;;;;;;147.13;76.05;;;;;;;13.44;100.00;93210.62;1743948;81;21041;-77
2021/07/13 03:24:38;;;;;;;52.98;27.42;;;;;;;13.35;100.00;93211.94;1775164;80;21092;-76
2021/07/13 03:27:06;;;;;;;23.85;15.35;;;;;;;13.30;100.00;93217.86;1809672;79;21125;-76
2021/07/13 03:29:32;;;;;;;11.53;7.53;;;;;;;13.30;100.00;93217.86;1757332;79;21454;-77
2021/07/13 03:31:59;;;;;;;1213.80;601.20;;;;;;;13.27;100.00;93214.59;1798035;79;21025;-74
2021/07/13 03:34:27;;;;;;;511.73;250.90;;;;;;;13.25;100.00;93207.42;1788043;79;21018;-74
2021/07/13 03:36:53;;;;;;;149.75;73.60;;;;;;;13.27;100.00;93215.19;1777528;80;21603;-74
2021/07/13 03:39:19;;;;;;;52.85;25.90;;;;;;;13.29;100.00;93213.59;1745165;81;21476;-76
2021/07/13 03:41:48;;;;;;;20.02;11.28;;;;;;;13.32;100.00;93215.50;1791905;80;21075;-75
2021/07/13 03:44:14;;;;;;;10.03;8.38;;;;;;;13.32;99.93;93212.00;1765377;79;21296;-75
2021/07/13 03:46:41;;;;;;;9.58;6.83;;;;;;;13.29;99.42;93212.23;1763173;79;21017;-78
2021/07/13 03:49:08;;;;;;;10.98;7.60;;;;;;;13.19;99.80;93216.48;1760411;80;21070;-78
2021/07/13 03:51:42;;;;;;;8.05;7.00;;;;;;;13.14;100.00;93216.37;1807212;79;21433;-77
2021/07/13 03:54:10;;;;;;;9.50;6.75;;;;;;;13.15;100.00;93210.30;1762635;80;21551;-76
2021/07/13 03:56:38;;;;;;;5.15;4.65;;;;;;;13.16;100.00;93210.48;1775073;80;21014;-74
2021/07/13 03:59:04;;;;;;;7.58;5.42;;;;;;;13.17;100.00;93209.31;1775886;80;21022;-76
2021/07/13 04:01:30;;;;;;;6.78;5.40;;;;;;;13.13;100.00;93214.83;1759230;80;21030;-76
2021/07/13 04:03:57;;;;;;;7.80;5.37;;;;;;;13.11;100.00;93205.67;1743391;81;21137;-76
2021/07/13 04:06:23;;;;;;;31.00;14.35;;;;;;;13.06;100.00;93208.89;1789270;79;21043;-77
2021/07/13 04:08:50;;;;;;;15.88;8.73;;;;;;;13.01;100.00;93208.58;1738742;81;21141;-77
2021/07/13 04:11:18;;;;;;;54.98;26.05;;;;;;;13.02;100.00;93210.91;1738815;81;21003;-78
2021/07/13 04:13:46;;;;;;;100.65;41.37;;;;;;;13.03;100.00;93208.35;1739457;81;21535;-78
2021/07/13 04:16:13;;;;;;;137.82;53.23;;;;;;;13.07;100.00;93202.83;1742518;81;21103;-76
2021/07/13 04:18:41;;;;;;;75.20;33.13;;;;;;;13.16;100.00;93203.05;1750721;80;21028;-76
2021/07/13 04:21:08;;;;;;;21.65;12.45;;;;;;;13.27;100.00;93201.53;1777430;80;21397;-75
2021/07/13 04:23:35;;;;;;;17.30;8.38;;;;;;;13.32;100.00;93203.81;1777777;80;21018;-76
2021/07/13 04:26:02;;;;;;;12.90;7.87;;;;;;;13.38;100.00;93192.56;1767305;80;21575;-76
2021/07/13 04:28:32;;;;;;;10.98;6.37;;;;;;;13.41;100.00;93197.19;1778575;79;21481;-76
2021/07/13 04:30:59;;;;;;;4.95;4.42;;;;;;;13.50;100.00;93200.73;1777983;79;21177;-75
2021/07/13 04:33:25;;;;;;;4.47;4.08;;;;;;;13.62;100.00;93197.41;1771683;79;21006;-78
2021/07/13 04:35:52;;;;;;;5.62;5.05;;;;;;;13.79;100.00;93197.63;1803818;78;21041;-77
2021/07/13 04:38:19;;;;;;;5.10;4.60;;;;;;;14.00;100.00;93192.34;1788055;79;21121;-81
2021/07/13 04:40:46;;;;;;;5.00;4.60;;;;;;;14.21;100.00;93201.28;1774451;80;21127;-76
2021/07/13 04:43:12;;;;;;;4.15;3.83;;;;;;;14.37;100.00;93194.50;1761963;79;21810;-77
2021/07/13 04:45:39;;;;;;;4.00;3.70;;;;;;;14.49;100.00;93195.23;1741334;79;21124;-76
2021/07/13 04:48:06;;;;;;;4.42;4.03;;;;;;;14.65;100.00;93196.45;1753872;79;21093;-77
2021/07/13 04:50:35;;;;;;;3.83;3.52;;;;;;;14.83;99.01;93197.41;1770331;79;20991;-78
2021/07/13 04:53:01;;;;;;;4.20;3.85;;;;;;;14.98;97.91;93196.64;1766865;78;21447;-75
2021/07/13 04:55:28;;;;;;;3.80;3.52;;;;;;;15.11;96.91;93193.97;1788877;79;21061;-75
2021/07/13 04:57:54;;;;;;;4.97;4.12;;;;;;;15.13;95.43;93197.06;1790112;78;21218;-78
2021/07/13 05:00:21;;;;;;;3.90;3.60;;;;;;;15.13;94.94;93193.56;1772441;79;21029;-79
2021/07/13 05:02:48;;;;;;;4.05;3.70;;;;;;;15.10;94.54;93199.89;1769856;80;21041;-77
2021/07/13 05:05:17;;;;;;;3.77;3.47;;;;;;;15.05;94.24;93191.59;1743061;80;21948;-77
2021/07/13 05:07:45;;;;;;;3.70;3.40;;;;;;;15.03;94.50;93189.88;1721660;83;21116;-76
2021/07/13 05:10:13;;;;;;;4.00;3.47;;;;;;;15.05;94.23;93192.97;1686785;80;21184;-76
2021/07/13 05:12:39;;;;;;;4.22;3.40;;;;;;;15.06;94.09;93192.52;1806482;77;21067;-77
2021/07/13 05:15:10;;;;;;;4.58;4.17;;;;;;;15.09;94.03;93186.80;1799813;78;21036;-78
2021/07/13 05:17:38;;;;;;;4.62;3.90;;;;;;;15.14;93.92;93186.27;1720334;79;21049;-75
2021/07/13 05:20:12;;;;;;;6.28;3.70;;;;;;;15.33;93.86;93187.96;1681405;83;21085;-75
2021/07/13 05:22:39;;;;;;;4.03;3.62;;;;;;;15.55;92.80;93189.71;1696033;81;21085;-78
2021/07/13 05:25:11;;;;;;;4.35;4.05;;;;;;;15.73;91.81;93182.41;1709321;79;21101;-79
2021/07/13 05:27:39;;;;;;;4.40;3.95;;;;;;;15.94;91.22;93185.16;1749606;79;21075;-77
2021/07/13 05:30:07;;;;;;;4.40;4.10;;;;;;;16.23;89.53;93178.25;1796955;79;21775;-77
2021/07/13 05:32:33;;;;;;;4.47;4.10;;;;;;;16.58;88.26;93185.86;1801286;78;21025;-77
2021/07/13 05:35:00;;;;;;;4.30;4.00;;;;;;;16.99;86.41;93187.73;1783810;79;21043;-80
2021/07/13 05:37:26;;;;;;;4.08;3.77;;;;;;;17.50;84.35;93180.00;1783049;78;21074;-78
2021/07/13 05:39:53;;;;;;;4.55;4.08;;;;;;;17.95;81.44;93183.75;1793317;78;21450;-76
2021/07/13 05:42:19;;;;;;;4.42;4.03;;;;;;;18.18;79.52;93184.67;1692663;81;21685;-76
2021/07/13 05:44:46;;;;;;;3.80;3.50;;;;;;;18.23;78.38;93186.06;1753993;79;21061;-78
2021/07/13 05:47:12;;;;;;;4.90;3.52;;;;;;;18.11;78.09;93183.55;1738391;80;21061;-77
2021/07/13 05:49:40;;;;;;;4.10;3.77;;;;;;;17.97;79.01;93182.68;1700740;80;21265;-75
2021/07/13 05:52:07;;;;;;;4.28;3.98;;;;;;;17.86;79.47;93190.55;1754253;80;21041;-79
2021/07/13 05:54:34;;;;;;;4.05;3.55;;;;;;;17.70;79.33;93196.97;1712998;81;21201;-77
2021/07/13 05:57:01;;;;;;;3.90;3.62;;;;;;;17.61;80.56;93195.53;1786089;78;21026;-77
2021/07/13 05:59:28;;;;;;;3.85;3.55;;;;;;;17.59;80.33;93194.58;1767312;78;21215;-77
2021/07/13 06:02:54;;;;;;;4.67;4.28;;;;;;;17.76;80.65;93189.72;1825858;75;22771;-76
2021/07/13 06:05:20;;;;;;;4.87;4.55;;;;;;;18.03;80.42;93186.41;1798233;77;21444;-75
2021/07/13 06:07:48;;;;;;;5.25;4.00;;;;;;;18.54;79.09;93185.31;1775598;77;21138;-77
2021/07/13 06:10:51;;;;;;;4.67;4.28;;;;;;;19.34;76.41;93179.05;1803440;77;22689;-77
2021/07/13 06:13:19;;;;;;;4.70;4.28;;;;;;;19.70;74.30;93185.23;1718990;80;21121;-78
2021/07/13 06:15:46;;;;;;;4.70;4.30;;;;;;;19.83;72.66;93182.34;1671298;83;21110;-76
2021/07/13 06:18:20;;;;;;;4.85;4.45;;;;;;;19.87;72.39;93183.70;1696446;80;21055;-78
2021/07/13 06:20:47;;;;;;;5.08;4.67;;;;;;;19.87;72.00;93182.95;1768170;78;20990;-78
2021/07/13 06:23:15;;;;;;;6.10;4.67;;;;;;;19.85;72.08;93182.02;1792310;78;21033;-77
2021/07/13 06:25:44;;;;;;;5.08;4.62;;;;;;;19.91;73.43;93177.28;1786423;78;21006;-77
2021/07/13 06:28:11;;;;;;;5.12;4.65;;;;;;;19.99;72.09;93177.11;1791033;78;21110;-79
2021/07/13 06:30:37;;;;;;;5.28;4.85;;;;;;;19.95;71.91;93173.13;1755301;78;21101;-77
2021/07/13 06:33:05;;;;;;;7.87;4.97;;;;;;;19.89;72.47;93170.20;1742388;81;21058;-78
2021/07/13 06:35:32;;;;;;;5.47;5.08;;;;;;;19.84;72.85;93163.94;1752883;79;21247;-79
2021/07/13 06:38:01;;;;;;;4.92;4.53;;;;;;;19.83;72.52;93169.92;1757576;80;21513;-76
2021/07/13 06:40:27;;;;;;;5.35;4.92;;;;;;;19.78;72.78;93175.45;1758620;80;22406;-76
2021/07/13 06:42:55;;;;;;;6.50;5.80;;;;;;;19.76;73.04;93175.12;1778497;79;21054;-74
2021/07/13 06:45:21;;;;;;;6.17;5.67;;;;;;;19.75;72.26;93169.47;1792149;78;21092;-77
2021/07/13 06:47:53;;;;;;;5.80;5.30;;;;;;;19.70;72.43;93168.68;1790060;78;21540;-78
2021/07/13 06:50:15;;;;;;;5.72;5.20;;;;;;;19.72;73.54;93166.86;1785515;78;21082;-78
2021/07/13 06:52:42;;;;;;;7.65;4.80;;;;;;;19.75;73.57;93160.42;1788241;78;21731;-77
2021/07/13 06:55:11;;;;;;;5.85;5.35;;;;;;;19.76;72.84;93153.67;1786879;78;21076;-76
2021/07/13 07:04:27;;;;;;;5.65;5.08;;;;;;;19.91;73.14;93146.31;1776053;78;21528;-76
2021/07/13 07:06:53;;;;;;;5.55;5.05;;;;;;;20.06;73.29;93148.59;1788662;78;21137;-76
2021/07/13 07:09:34;;;;;;;5.70;5.12;;;;;;;20.21;72.47;93141.05;1790947;78;21464;-77
2021/07/13 07:12:01;;;;;;;5.55;5.12;;;;;;;20.35;71.51;93144.55;1794405;79;21040;-76
2021/07/13 07:14:33;;;;;;;8.68;5.12;;;;;;;20.46;70.45;93142.66;1775895;79;21117;-77
2021/07/13 07:17:05;;;;;;;5.90;5.40;;;;;;;20.53;69.87;93134.08;1792967;78;20912;-75
2021/07/13 07:19:36;;;;;;;9.13;5.80;;;;;;;20.60;69.68;93141.41;1748112;77;21567;-77
2021/07/13 07:22:09;;;;;;;5.85;5.35;;;;;;;20.67;67.94;93139.56;1795310;77;21161;-77
2021/07/13 07:24:39;;;;;;;6.25;5.65;;;;;;;20.73;69.89;93137.70;1791879;78;21055;-77
2021/07/13 07:27:05;;;;;;;5.97;5.28;;;;;;;20.80;68.74;93135.37;1778913;79;21598;-76
2021/07/13 07:29:34;;;;;;;6.97;6.37;;;;;;;20.88;69.31;93133.03;1745723;79;21030;-76
2021/07/13 07:32:01;;;;;;;6.03;5.42;;;;;;;21.01;68.81;93130.03;1764820;78;21137;-74
2021/07/13 07:34:30;;;;;;;5.95;5.22;;;;;;;21.15;68.92;93129.34;1789752;79;21130;-76
2021/07/13 07:36:56;;;;;;;5.70;5.28;;;;;;;21.30;68.08;93129.41;1779776;78;21074;-75
2021/07/13 07:39:25;;;;;;;5.80;5.30;;;;;;;21.47;67.76;93131.92;1736439;80;21557;-75
2021/07/13 07:41:56;;;;;;;6.00;5.40;;;;;;;21.71;67.58;93135.30;1773350;78;21066;-75
2021/07/13 07:44:25;;;;;;;5.70;5.20;;;;;;;21.97;66.93;93132.15;1754323;80;21839;-75
2021/07/13 07:46:52;;;;;;;9.03;5.87;;;;;;;22.14;66.66;93122.78;1761180;78;21416;-76
2021/07/13 07:49:41;;;;;;;7.80;5.87;;;;;;;22.27;67.00;93123.91;1786803;78;21002;-76
2021/07/13 07:52:11;;;;;;;5.28;4.87;;;;;;;22.38;66.87;93120.53;1785476;78;21128;-77
2021/07/13 07:57:50;;;;;;;5.72;5.22;;;;;;;22.62;67.14;93118.42;1855650;76;22632;-77
2021/07/13 08:02:21;;;;;;;5.67;5.08;;;;;;;22.81;65.34;93120.35;1817519;76;22715;-76
2021/07/13 08:04:50;;;;;;;6.80;5.62;;;;;;;22.85;64.79;93121.55;1736957;80;21220;-77
2021/07/13 08:07:21;;;;;;;6.60;5.08;;;;;;;22.93;64.74;93117.16;1799320;76;21295;-78
2021/07/13 08:09:47;;;;;;;9.08;5.25;;;;;;;23.00;64.79;93127.22;1809451;76;21084;-76
2021/07/13 08:12:19;;;;;;;5.80;5.25;;;;;;;23.07;64.86;93110.05;1820177;77;20978;-75
2021/07/13 08:14:53;;;;;;;6.22;5.42;;;;;;;23.11;63.24;93107.84;1802689;78;21014;-77
2021/07/13 08:17:20;;;;;;;6.40;5.00;;;;;;;23.18;61.76;93115.75;1805530;78;21072;-77
2021/07/13 08:19:48;;;;;;;5.72;5.08;;;;;;;23.22;62.58;93112.91;1800063;78;21100;-76
2021/07/13 08:22:31;;;;;;;6.87;5.90;;;;;;;23.26;60.27;93112.70;1816508;77;20949;-78
2021/07/13 08:37:36;;;;;;;5.10;4.70;;;;;;;24.23;54.91;93102.23;1829573;77;22684;-79
2021/07/13 08:40:26;;;;;;;;;;;;;;;;;;;;;
2021/07/13 08:42:49;;;;;;;5.40;4.78;;;;;;;24.55;51.05;93104.42;1765106;79;21058;-76
2021/07/13 08:45:28;;;;;;;8.15;4.85;;;;;;;24.69;51.16;93105.55;1786426;77;20935;-83
2021/07/13 08:48:04;;;;;;;5.72;5.22;;;;;;;24.74;51.48;93106.84;1740754;80;21013;-80
2021/07/13 08:56:09;;;;;;;8.35;5.33;;;;;;;24.81;51.12;93103.61;1758772;80;20978;-77
2021/07/13 09:01:12;;;;;;;7.40;5.35;;;;;;;24.89;51.36;93098.48;1841304;76;22769;-76
2021/07/13 09:03:55;;;;;;;5.50;4.95;;;;;;;24.89;51.76;93101.89;1831225;77;21040;-76
2021/07/13 09:06:23;;;;;;;10.68;5.50;;;;;;;25.01;48.38;93095.78;1825955;77;21143;-80
2021/07/13 09:08:55;;;;;;;6.20;5.45;;;;;;;25.13;49.72;93100.20;1829957;77;20997;-79
2021/07/13 09:11:23;;;;;;;6.25;4.92;;;;;;;25.19;47.77;93098.95;1797744;77;21046;-76
2021/07/13 09:16:41;;;;;;;7.42;5.33;;;;;;;25.31;49.56;93090.67;1826747;77;22639;-80
2021/07/13 09:19:11;;;;;;;5.97;5.47;;;;;;;25.30;47.57;93091.94;1717561;80;21105;-79
2021/07/13 09:21:41;;;;;;;6.05;5.45;;;;;;;25.30;48.46;93092.69;1683401;80;21270;-81
2021/07/13 09:24:20;;;;;;;6.58;6.03;;;;;;;25.31;49.06;93093.45;1737073;80;21061;-80
2021/07/13 09:26:57;;;;;;;7.17;5.70;;;;;;;25.31;49.07;93091.45;1707323;79;21001;-79
2021/07/13 09:29:37;;;;;;;6.12;5.42;;;;;;;25.32;48.29;93095.75;1736623;80;21137;-79
2021/07/13 09:32:06;;;;;;;7.15;5.37;;;;;;;25.34;49.40;93100.17;1746565;80;21773;-79
2021/07/13 09:34:36;;;;;;;5.95;5.40;;;;;;;25.36;47.56;93098.30;1709412;82;21527;-79
2021/07/13 09:37:03;;;;;;;5.83;5.33;;;;;;;25.38;47.78;93096.52;1738772;80;21332;-77
2021/07/13 09:41:33;;;;;;;7.90;5.87;;;;;;;25.53;49.90;93090.02;1879326;74;22615;-78
2021/07/13 09:46:33;;;;;;;6.08;5.28;;;;;;;25.58;48.03;93088.66;1870853;75;22683;-76
2021/07/13 09:49:25;;;;;;;7.90;5.00;;;;;;;25.55;48.53;93091.69;1801673;77;21014;-79
2021/07/13 09:52:04;;;;;;;11.12;6.00;;;;;;;25.58;51.11;93089.30;1813520;77;21858;-77
2021/07/13 09:54:41;;;;;;;8.83;5.22;;;;;;;25.66;49.91;93093.12;1806648;77;20994;-77
2021/07/13 09:57:16;;;;;;;6.00;5.50;;;;;;;25.71;48.30;93092.37;1826142;77;21052;-76
2021/07/13 09:59:47;;;;;;;8.03;5.58;;;;;;;25.71;47.68;93093.77;1826064;77;21084;-78
2021/07/13 10:02:17;;;;;;;7.95;5.40;;;;;;;25.68;46.74;93096.91;1744424;80;21657;-77
2021/07/13 10:04:50;;;;;;;14.98;13.48;;;;;;;25.65;46.72;93095.15;1735299;80;21153;-78
2021/07/13 10:07:21;;;;;;;7.53;6.78;;;;;;;25.61;47.32;93089.06;1775868;79;20946;-76
2021/07/13 10:10:03;;;;;;;10.20;6.42;;;;;;;25.59;45.71;93094.35;1807851;78;20970;-77
2021/07/13 10:12:29;;;;;;;6.28;5.65;;;;;;;25.59;47.01;93091.56;1786135;78;21680;-77
2021/07/13 10:14:57;;;;;;;9.50;5.62;;;;;;;25.63;46.74;93092.72;1794081;78;22239;-76
2021/07/13 10:17:26;;;;;;;6.70;5.78;;;;;;;25.70;48.04;93087.31;1767775;80;21129;-77
2021/07/13 10:20:09;;;;;;;11.65;5.70;;;;;;;25.73;47.13;93087.70;1766526;77;21076;-79
2021/07/13 10:22:44;;;;;;;7.00;5.35;;;;;;;25.76;47.14;93092.25;1823158;77;21615;-78
2021/07/13 10:25:11;;;;;;;6.30;5.80;;;;;;;25.82;47.58;93095.22;1803191;77;21226;-79
2021/07/13 10:27:41;;;;;;;9.23;6.35;;;;;;;25.79;46.58;93092.05;1795433;76;21128;-76
2021/07/13 10:30:21;;;;;;;6.40;5.65;;;;;;;25.75;47.57;93086.56;1790085;78;21135;-81
2021/07/13 10:32:48;;;;;;;7.03;6.33;;;;;;;25.65;47.48;93083.23;1774091;79;22042;-77
2021/07/13 10:35:31;;;;;;;7.25;5.75;;;;;;;25.52;47.47;93085.72;1778730;79;21317;-78
2021/07/13 10:38:21;;;;;;;10.45;6.20;;;;;;;25.38;47.32;93085.39;1759745;80;21136;-78
2021/07/13 10:40:46;;;;;;;7.10;6.28;;;;;;;25.29;47.51;93084.22;1760381;80;21121;-78
2021/07/13 10:43:22;;;;;;;6.53;6.03;;;;;;;25.24;47.81;93081.39;1760404;80;22253;-76
2021/07/13 10:46:09;;;;;;;8.45;5.60;;;;;;;25.22;48.60;93090.89;1714617;82;21086;-81
2021/07/13 10:48:38;;;;;;;6.83;5.97;;;;;;;25.19;48.28;93085.67;1692398;82;21071;-78
2021/07/13 10:51:07;;;;;;;11.40;5.90;;;;;;;25.18;48.90;93086.94;1736305;79;21065;-80
2021/07/13 10:53:42;;;;;;;9.08;5.83;;;;;;;25.17;49.19;93089.59;1769867;78;21087;-78
2021/07/13 10:56:17;;;;;;;5.97;5.47;;;;;;;25.14;51.28;93085.78;1755435;79;21118;-79
2021/07/13 10:58:51;;;;;;;6.97;6.33;;;;;;;25.12;51.54;93082.73;1718452;81;21090;-78
2021/07/13 11:01:21;;;;;;;6.70;6.07;;;;;;;25.11;52.78;93083.23;1749971;80;21014;-78
2021/07/13 11:03:53;;;;;;;7.70;5.60;;;;;;;25.07;51.08;93083.44;1723949;80;21398;-80
2021/07/13 11:06:45;;;;;;;8.93;8.13;;;;;;;25.08;49.89;93086.34;1734473;80;21053;-79
2021/07/13 11:09:28;;;;;;;8.50;7.80;;;;;;;25.11;53.04;93083.99;1770559;80;21113;-78
2021/07/13 11:12:05;;;;;;;8.73;6.87;;;;;;;25.11;53.03;93083.23;1788645;77;27603;-79
2021/07/13 11:14:56;;;;;;;9.68;7.08;;;;;;;25.09;52.13;93085.10;1798453;77;21069;-77
2021/07/13 11:17:24;;;;;;;7.45;6.72;;;;;;;25.06;51.45;93083.31;1769757;78;21610;-79
2021/07/13 11:20:06;;;;;;;7.65;7.03;;;;;;;25.03;52.10;93080.76;1735335;81;21751;-79
2021/07/13 11:22:32;;;;;;;9.48;6.90;;;;;;;25.03;52.59;93077.34;1741359;80;21148;-78
2021/07/13 11:24:59;;;;;;;9.00;8.10;;;;;;;25.10;51.01;93074.13;1739917;80;21041;-77
2021/07/13 11:27:25;;;;;;;11.63;9.20;;;;;;;25.16;51.54;93077.72;1784447;78;21061;-77
2021/07/13 11:29:53;;;;;;;20.85;15.72;;;;;;;25.20;52.61;93070.53;1774795;79;21114;-77
2021/07/13 11:32:21;;;;;;;25.77;17.23;;;;;;;25.23;54.78;93079.25;1785614;78;21616;-79
2021/07/13 11:34:48;;;;;;;13.53;9.60;;;;;;;25.22;56.56;93078.36;1783478;78;21118;-79
2021/07/13 11:37:17;;;;;;;11.45;8.50;;;;;;;25.23;54.27;93077.86;1779995;79;21033;-77
2021/07/13 11:39:43;;;;;;;24.57;8.38;;;;;;;25.27;54.07;93079.02;1780931;78;21543;-81
2021/07/13 11:42:17;;;;;;;9.28;7.45;;;;;;;25.27;53.11;93074.84;1787338;78;21035;-84
2021/07/13 11:44:45;;;;;;;10.40;6.72;;;;;;;25.28;52.64;93072.21;1812284;78;21696;-80
2021/07/13 11:47:14;;;;;;;7.08;6.47;;;;;;;25.27;52.95;93072.06;1817056;78;21141;-78
2021/07/13 11:49:41;;;;;;;9.10;6.87;;;;;;;25.24;53.14;93064.09;1804278;78;21162;-79
2021/07/13 11:52:10;;;;;;;11.10;6.85;;;;;;;25.23;53.50;93062.55;1749309;78;21074;-78
2021/07/13 11:54:40;;;;;;;10.63;8.83;;;;;;;25.20;53.91;93066.36;1765891;78;21304;-79
2021/07/13 11:57:13;;;;;;;12.50;7.58;;;;;;;25.22;52.88;93061.67;1784905;78;21054;-76
2021/07/13 11:59:41;;;;;;;9.03;7.05;;;;;;;25.27;53.35;93062.32;1781657;78;21186;-79
2021/07/13 12:02:08;;;;;;;7.45;6.17;;;;;;;25.32;52.87;93060.97;1822595;77;21084;-77
2021/07/13 12:04:39;;;;;;;7.35;6.58;;;;;;;25.33;54.00;93061.09;1713095;80;21042;-78
2021/07/13 12:07:07;;;;;;;7.37;6.75;;;;;;;25.32;55.17;93062.36;1771383;79;21080;-78
2021/07/13 12:09:38;;;;;;;6.92;6.33;;;;;;;25.29;54.77;93060.57;1813621;77;21591;-79
2021/07/13 12:12:14;;;;;;;6.83;6.22;;;;;;;25.25;53.72;93064.22;1741332;80;21132;-82
2021/07/13 12:14:43;;;;;;;7.28;6.58;;;;;;;25.24;52.41;93059.14;1730848;80;21104;-80
2021/07/13 12:17:11;;;;;;;10.55;6.95;;;;;;;25.28;54.06;93056.91;1759977;80;21089;-80
2021/07/13 12:19:38;;;;;;;9.48;7.30;;;;;;;25.36;54.36;93058.70;1799539;78;21088;-81
2021/07/13 12:22:12;;;;;;;8.15;7.37;;;;;;;25.44;55.81;93063.17;1801427;77;21088;-80
2021/07/13 12:24:46;;;;;;;11.38;9.30;;;;;;;25.49;55.82;93057.48;1783830;78;21176;-78